Time;durP1;ratioP1;P1;durP2;ratioP2;P2;SDS_P1;SDS_P2;PMS_P1;PMS_P2;Temp;Humidity;BMP_temperature;BMP_pressure;BME280_temperature;BME280_humidity;BME280_pressure;Samples;Min_cycle;Max_cycle;Signal;HPM_P1;HPM_P2
2024/01/22 00:01:27;;;;;;;11.88;4.45;;;6.80;99.90;;;;;;5033196;28;20041;-72
2024/01/22 00:03:52;;;;;;;7.00;4.40;;;6.80;99.90;;;;;;5033463;28;20069;-72
2024/01/22 00:06:18;;;;;;;10.30;4.45;;;6.90;99.90;;;;;;5049235;28;20402;-70
2024/01/22 00:08:44;;;;;;;8.98;5.10;;;6.90;99.90;;;;;;5065973;28;20041;-70
2024/01/22 00:11:11;;;;;;;7.78;4.07;;;6.80;99.90;;;;;;5034752;28;20040;-72
2024/01/22 00:13:37;;;;;;;9.07;4.30;;;6.80;99.90;;;;;;5032890;28;20183;-70
2024/01/22 00:16:02;;;;;;;9.90;4.35;;;6.90;99.90;;;;;;5033560;28;20124;-70
2024/01/22 00:18:28;;;;;;;10.93;5.15;;;6.80;99.90;;;;;;5065642;28;20044;-70
2024/01/22 00:20:54;;;;;;;9.15;4.40;;;6.90;99.90;;;;;;5033605;28;20479;-70
2024/01/22 00:23:20;;;;;;;9.05;5.00;;;6.90;99.90;;;;;;5032760;28;20067;-70
2024/01/22 00:25:46;;;;;;;8.98;4.30;;;6.90;99.90;;;;;;5038241;28;20037;-70
2024/01/22 00:28:12;;;;;;;7.68;4.15;;;7.00;99.90;;;;;;5048876;28;20489;-70
2024/01/22 00:30:37;;;;;;;8.77;4.53;;;7.00;99.90;;;;;;5031834;28;20100;-70
2024/01/22 00:33:03;;;;;;;9.23;4.43;;;7.00;99.90;;;;;;5032705;28;20049;-70
2024/01/22 00:35:29;;;;;;;7.78;5.05;;;7.10;99.90;;;;;;5032871;28;20053;-70
2024/01/22 00:37:54;;;;;;;8.82;4.72;;;7.10;99.90;;;;;;5034375;28;20120;-70
2024/01/22 00:40:20;;;;;;;6.57;3.53;;;7.10;99.90;;;;;;5031424;28;20037;-70
2024/01/22 00:42:46;;;;;;;9.70;4.30;;;7.10;99.90;;;;;;5033368;28;20103;-70
2024/01/22 00:45:11;;;;;;;6.07;4.13;;;7.10;99.90;;;;;;5031336;28;20041;-70
2024/01/22 00:47:37;;;;;;;9.90;4.10;;;7.20;99.90;;;;;;5032701;28;20431;-70
2024/01/22 00:50:04;;;;;;;8.88;4.13;;;7.10;99.90;;;;;;5033822;28;20086;-70
2024/01/22 00:52:31;;;;;;;7.00;3.33;;;7.20;99.90;;;;;;5032778;28;20108;-70
2024/01/22 00:54:56;;;;;;;9.68;5.13;;;7.30;99.90;;;;;;5031704;28;20060;-70
2024/01/22 00:57:22;;;;;;;10.25;3.75;;;7.30;99.90;;;;;;5032188;28;20037;-70
2024/01/22 00:59:47;;;;;;;8.10;4.63;;;7.20;99.90;;;;;;5032001;28;20042;-70
2024/01/22 01:02:13;;;;;;;8.35;3.92;;;7.30;99.90;;;;;;5049347;28;20516;-70
2024/01/22 01:04:40;;;;;;;6.85;4.43;;;7.30;99.90;;;;;;5030896;28;20616;-69
2024/01/22 01:07:06;;;;;;;8.73;4.90;;;7.30;99.90;;;;;;5032491;28;20405;-69
2024/01/22 01:09:31;;;;;;;11.38;4.65;;;7.20;99.90;;;;;;5031279;28;20048;-69
2024/01/22 01:11:57;;;;;;;7.47;4.20;;;7.30;99.90;;;;;;5031894;28;20060;-69
2024/01/22 01:14:24;;;;;;;9.40;4.28;;;7.20;99.90;;;;;;5031535;28;20040;-69
2024/01/22 01:16:50;;;;;;;6.47;4.18;;;7.30;99.90;;;;;;5032424;28;20076;-69
2024/01/22 01:19:16;;;;;;;11.88;4.97;;;7.30;99.90;;;;;;5032427;28;20069;-69
2024/01/22 01:21:41;;;;;;;11.90;4.63;;;7.30;99.90;;;;;;5032131;28;20033;-70
2024/01/22 01:24:08;;;;;;;6.47;4.03;;;7.40;99.90;;;;;;5031595;28;20041;-70
2024/01/22 01:26:41;;;;;;;11.35;4.80;;;7.30;99.90;;;;;;5030688;28;20386;-70
2024/01/22 01:29:07;;;;;;;8.50;4.60;;;7.40;99.90;;;;;;5034446;28;20036;-70
2024/01/22 01:31:33;;;;;;;10.02;4.30;;;7.40;99.90;;;;;;5063944;28;20041;-69
2024/01/22 01:33:59;;;;;;;9.07;4.32;;;7.40;99.90;;;;;;5030813;28;20044;-69
2024/01/22 01:36:25;;;;;;;10.57;4.00;;;7.50;99.90;;;;;;5013647;28;20079;-74
2024/01/22 01:38:50;;;;;;;8.20;4.03;;;7.40;99.90;;;;;;5032359;28;20033;-69
2024/01/22 01:41:16;;;;;;;8.15;4.35;;;7.40;99.90;;;;;;5033016;28;20172;-69
2024/01/22 01:43:42;;;;;;;8.80;4.30;;;7.50;99.90;;;;;;5031560;28;20045;-69
2024/01/22 01:46:08;;;;;;;6.28;3.58;;;7.60;99.90;;;;;;5062772;28;20037;-68
2024/01/22 01:48:34;;;;;;;8.45;3.80;;;7.70;99.90;;;;;;5025042;28;20213;-69
2024/01/22 01:51:02;;;;;;;9.68;4.43;;;7.80;99.90;;;;;;5030972;28;20057;-69
2024/01/22 01:53:29;;;;;;;7.05;4.15;;;7.80;99.90;;;;;;5032438;28;20102;-70
2024/01/22 01:55:55;;;;;;;8.48;3.83;;;7.80;99.90;;;;;;5030397;28;20406;-71
2024/01/22 01:58:22;;;;;;;8.88;4.28;;;7.90;99.90;;;;;;5031170;28;20040;-68
2024/01/22 02:00:51;;;;;;;7.40;3.55;;;8.00;99.90;;;;;;5031408;28;20045;-69
2024/01/22 02:03:17;;;;;;;6.00;3.25;;;7.90;99.90;;;;;;5031823;28;20120;-69
2024/01/22 02:05:43;;;;;;;9.48;4.50;;;8.00;99.90;;;;;;5064222;28;20116;-70
2024/01/22 02:08:08;;;;;;;6.70;3.85;;;8.10;99.90;;;;;;5031446;28;20033;-70
2024/01/22 02:10:34;;;;;;;6.40;4.22;;;8.10;99.90;;;;;;5031174;28;20080;-71
2024/01/22 02:13:03;;;;;;;9.00;4.00;;;8.20;99.90;;;;;;5031996;28;20144;-71
2024/01/22 02:15:29;;;;;;;18.50;4.65;;;8.20;99.90;;;;;;5031880;28;20045;-77
2024/01/22 02:18:02;;;;;;;8.02;4.28;;;8.30;99.90;;;;;;5032560;28;20352;-71
2024/01/22 02:20:28;;;;;;;8.63;4.03;;;8.20;99.90;;;;;;5018578;28;20041;-71
2024/01/22 02:22:54;;;;;;;8.27;4.05;;;8.40;99.90;;;;;;5031308;28;20095;-68
2024/01/22 02:25:20;;;;;;;6.53;3.80;;;8.20;99.90;;;;;;5031429;28;20459;-70
2024/01/22 02:27:46;;;;;;;6.03;3.67;;;8.30;99.90;;;;;;5029822;28;20486;-70
2024/01/22 02:30:12;;;;;;;7.20;3.72;;;8.30;99.90;;;;;;5025350;28;20046;-70
2024/01/22 02:32:38;;;;;;;7.20;3.55;;;8.40;99.90;;;;;;5029628;28;20067;-70
2024/01/22 02:35:04;;;;;;;7.82;4.10;;;8.40;99.90;;;;;;5031651;28;20426;-69
2024/01/22 02:37:29;;;;;;;8.02;3.63;;;8.30;99.90;;;;;;5033116;28;20107;-69
2024/01/22 02:39:55;;;;;;;8.80;4.05;;;8.40;99.90;;;;;;5027041;28;20050;-69
2024/01/22 02:42:21;;;;;;;7.93;3.78;;;8.40;99.90;;;;;;5019784;28;20046;-69
2024/01/22 02:44:46;;;;;;;7.28;4.57;;;8.40;99.90;;;;;;5035724;28;20125;-69
2024/01/22 02:47:12;;;;;;;7.07;3.53;;;8.50;99.90;;;;;;5031267;28;20045;-69
2024/01/22 02:49:38;;;;;;;8.57;3.55;;;8.50;99.90;;;;;;5020714;28;20107;-70
2024/01/22 02:52:04;;;;;;;7.53;3.78;;;8.60;99.90;;;;;;5017539;28;20108;-69
2024/01/22 02:54:30;;;;;;;7.18;3.47;;;8.70;99.90;;;;;;5011891;28;20050;-69
2024/01/22 02:56:55;;;;;;;6.30;3.88;;;8.70;99.90;;;;;;5048148;28;20046;-69
2024/01/22 02:59:21;;;;;;;7.53;3.20;;;8.70;99.90;;;;;;5017810;28;20058;-69
2024/01/22 03:01:47;;;;;;;5.72;4.05;;;8.70;99.90;;;;;;5017638;28;20049;-69
2024/01/22 03:04:12;;;;;;;8.20;3.63;;;8.70;99.90;;;;;;5066907;28;20371;-69
2024/01/22 03:06:41;;;;;;;6.90;3.95;;;8.70;99.90;;;;;;5035022;28;20124;-74
2024/01/22 03:09:06;;;;;;;8.95;3.15;;;8.70;99.90;;;;;;5047084;28;20064;-69
2024/01/22 03:11:32;;;;;;;4.88;2.92;;;8.70;99.90;;;;;;5034951;28;20041;-69
2024/01/22 03:13:58;;;;;;;5.90;3.20;;;8.70;99.90;;;;;;5034641;28;20340;-69
2024/01/22 03:16:23;;;;;;;7.45;3.67;;;8.70;99.90;;;;;;5035178;28;20033;-69
2024/01/22 03:18:49;;;;;;;5.65;2.95;;;8.70;99.90;;;;;;5033016;28;20116;-69
2024/01/22 03:21:15;;;;;;;5.60;3.50;;;8.80;99.90;;;;;;5039977;28;20060;-69
2024/01/22 03:23:43;;;;;;;6.32;3.53;;;8.80;99.90;;;;;;5038436;28;20063;-74
2024/01/22 03:26:17;;;;;;;7.13;3.55;;;8.70;99.90;;;;;;5033443;28;20394;-69
2024/01/22 03:28:43;;;;;;;7.45;3.53;;;8.80;99.90;;;;;;5033629;28;20482;-70
2024/01/22 03:31:18;;;;;;;9.40;4.00;;;8.80;99.90;;;;;;5033236;28;20037;-69
2024/01/22 03:33:44;;;;;;;8.80;3.22;;;8.70;99.90;;;;;;5032803;28;20072;-69
2024/01/22 03:36:09;;;;;;;7.85;3.47;;;8.70;99.90;;;;;;5033130;28;20080;-70
2024/01/22 03:38:35;;;;;;;8.15;3.80;;;8.70;99.90;;;;;;5034170;28;20034;-69
2024/01/22 03:41:01;;;;;;;7.10;3.35;;;8.70;99.90;;;;;;5032653;28;20152;-70
2024/01/22 03:43:26;;;;;;;8.27;3.17;;;8.70;99.90;;;;;;5051054;28;20056;-70
2024/01/22 03:45:52;;;;;;;6.30;3.30;;;8.70;99.90;;;;;;5033763;28;20079;-70
2024/01/22 03:48:18;;;;;;;6.10;3.10;;;8.70;99.90;;;;;;5034104;28;20052;-69
2024/01/22 03:50:43;;;;;;;4.82;2.63;;;8.70;99.90;;;;;;5033906;28;20103;-75
2024/01/22 03:53:09;;;;;;;4.50;2.95;;;8.70;99.90;;;;;;5033993;28;20045;-70
2024/01/22 03:55:35;;;;;;;5.90;3.25;;;8.70;99.90;;;;;;5035168;28;20471;-71
2024/01/22 03:58:00;;;;;;;4.78;3.25;;;8.70;99.90;;;;;;5033723;28;20038;-70
2024/01/22 04:00:26;;;;;;;5.85;2.67;;;8.70;99.90;;;;;;5049070;28;20084;-69
2024/01/22 04:02:52;;;;;;;3.65;2.50;;;8.70;99.90;;;;;;5034139;28;20041;-69
2024/01/22 04:05:17;;;;;;;4.93;2.60;;;8.70;99.90;;;;;;5032317;28;20076;-70
2024/01/22 04:07:43;;;;;;;5.05;2.80;;;8.80;99.90;;;;;;5035052;28;20030;-69
2024/01/22 04:10:09;;;;;;;6.40;2.67;;;8.90;99.90;;;;;;5031775;28;20136;-69
2024/01/22 04:12:35;;;;;;;4.47;2.67;;;8.80;99.90;;;;;;5033624;28;20475;-69
2024/01/22 04:15:01;;;;;;;5.63;2.60;;;8.90;99.90;;;;;;5049017;28;20037;-70
2024/01/22 04:17:27;;;;;;;4.53;2.60;;;8.90;99.90;;;;;;5032964;28;20426;-69
2024/01/22 04:19:52;;;;;;;5.90;2.60;;;8.90;99.90;;;;;;5034341;28;20045;-69
2024/01/22 04:22:18;;;;;;;6.60;3.40;;;9.00;99.90;;;;;;5032117;28;20090;-69
2024/01/22 04:24:43;;;;;;;4.50;2.38;;;9.00;99.90;;;;;;5032965;28;20045;-69
2024/01/22 04:27:09;;;;;;;5.30;2.63;;;8.90;99.90;;;;;;5032661;28;20046;-69
2024/01/22 04:29:35;;;;;;;4.30;2.50;;;8.90;99.90;;;;;;5033553;28;20041;-69
2024/01/22 04:32:01;;;;;;;4.03;2.53;;;9.00;99.90;;;;;;5032528;28;20143;-70
2024/01/22 04:34:26;;;;;;;3.95;2.20;;;9.00;99.90;;;;;;5033897;28;20107;-69
2024/01/22 04:36:52;;;;;;;3.95;2.47;;;9.10;99.90;;;;;;5032829;28;20059;-73
2024/01/22 04:39:19;;;;;;;5.05;2.20;;;9.10;99.90;;;;;;5063538;28;20048;-69
2024/01/22 04:41:47;;;;;;;4.18;2.33;;;9.10;99.90;;;;;;5032683;28;20049;-69
2024/01/22 04:44:12;;;;;;;4.03;2.13;;;9.10;99.90;;;;;;5032472;28;20046;-69
2024/01/22 04:46:38;;;;;;;4.00;2.38;;;9.10;99.90;;;;;;5043960;28;20052;-69
2024/01/22 04:49:04;;;;;;;5.88;2.47;;;9.10;99.90;;;;;;5029555;28;20059;-70
2024/01/22 04:51:29;;;;;;;3.50;2.30;;;9.10;99.90;;;;;;5026642;28;20053;-68
2024/01/22 04:53:55;;;;;;;3.10;2.30;;;9.30;99.90;;;;;;5016850;28;20521;-73
2024/01/22 04:56:20;;;;;;;3.47;2.33;;;9.30;99.90;;;;;;5017576;28;20058;-69
2024/01/22 04:58:46;;;;;;;4.47;2.22;;;9.30;99.90;;;;;;5021109;28;20116;-68
2024/01/22 05:01:13;;;;;;;3.17;2.10;;;9.30;99.90;;;;;;5049663;28;20050;-69
2024/01/22 05:03:38;;;;;;;4.90;2.60;;;9.20;99.90;;;;;;5019329;28;20079;-69
2024/01/22 05:06:04;;;;;;;3.90;2.25;;;9.30;99.90;;;;;;5022300;28;20471;-70
2024/01/22 05:08:30;;;;;;;5.38;2.67;;;9.30;99.90;;;;;;5015969;28;20467;-69
2024/01/22 05:10:55;;;;;;;3.95;2.30;;;9.30;99.90;;;;;;5023803;28;20045;-73
2024/01/22 05:13:22;;;;;;;3.35;2.17;;;9.40;99.90;;;;;;5027934;28;20045;-69
2024/01/22 05:15:48;;;;;;;2.35;1.90;;;9.40;99.90;;;;;;5025911;28;20042;-69
2024/01/22 05:18:14;;;;;;;2.90;2.13;;;9.40;99.90;;;;;;5030471;28;20041;-69
2024/01/22 05:20:40;;;;;;;3.05;2.38;;;9.40;99.90;;;;;;5017862;28;20060;-69
2024/01/22 05:23:05;;;;;;;4.10;2.10;;;9.40;99.90;;;;;;5025974;28;20079;-69
2024/01/22 05:25:32;;;;;;;5.40;2.40;;;9.40;99.90;;;;;;5022412;28;20140;-68
2024/01/22 05:27:57;;;;;;;4.18;2.10;;;9.60;99.90;;;;;;5013785;28;20041;-68
2024/01/22 05:30:23;;;;;;;4.57;2.33;;;9.60;99.90;;;;;;5031781;28;20045;-69
2024/01/22 05:32:49;;;;;;;5.00;1.88;;;9.70;99.90;;;;;;5021972;28;20387;-69
2024/01/22 05:35:15;;;;;;;3.35;2.03;;;9.60;99.90;;;;;;5016622;28;20037;-69
2024/01/22 05:37:41;;;;;;;3.28;2.15;;;9.70;99.90;;;;;;5015365;28;20051;-71
2024/01/22 05:40:13;;;;;;;4.88;1.88;;;9.80;99.90;;;;;;5063877;28;20042;-71
2024/01/22 05:42:39;;;;;;;3.55;1.88;;;9.80;99.90;;;;;;5031266;28;20049;-71
2024/01/22 05:45:05;;;;;;;5.90;2.00;;;9.80;99.90;;;;;;5030728;28;20053;-71
2024/01/22 05:47:32;;;;;;;5.47;1.70;;;10.00;99.90;;;;;;5031395;28;20053;-71
2024/01/22 05:49:58;;;;;;;3.10;1.73;;;10.00;99.90;;;;;;5043446;28;20044;-70
2024/01/22 05:52:24;;;;;;;4.65;2.00;;;10.10;99.90;;;;;;5030241;28;20041;-70
2024/01/22 05:54:49;;;;;;;3.45;1.70;;;10.20;99.90;;;;;;5014408;28;20057;-71
2024/01/22 05:57:15;;;;;;;3.90;1.60;;;10.20;99.90;;;;;;5020583;28;20037;-70
2024/01/22 05:59:41;;;;;;;3.38;1.38;;;10.30;99.90;;;;;;5030782;28;20041;-70
2024/01/22 06:02:06;;;;;;;3.63;1.30;;;10.40;99.90;;;;;;5031531;28;20045;-71
2024/01/22 06:04:32;;;;;;;3.03;1.40;;;10.30;99.90;;;;;;5031662;28;20053;-71
2024/01/22 06:06:57;;;;;;;4.30;1.70;;;10.40;99.90;;;;;;5030056;28;20492;-72
2024/01/22 06:09:23;;;;;;;3.67;1.77;;;10.40;99.90;;;;;;5029962;28;20107;-73
2024/01/22 06:11:49;;;;;;;4.05;1.70;;;10.40;99.90;;;;;;5030362;28;20103;-73
2024/01/22 06:14:16;;;;;;;4.70;1.77;;;10.40;99.90;;;;;;5036515;28;20060;-74
2024/01/22 06:16:41;;;;;;;11.65;2.17;;;10.40;99.90;;;;;;5031933;28;20052;-73
2024/01/22 06:19:07;;;;;;;8.10;2.13;;;10.30;99.90;;;;;;5030471;28;20379;-75
2024/01/22 06:21:33;;;;;;;5.57;1.88;;;10.30;99.90;;;;;;5030134;28;20080;-72
2024/01/22 06:23:59;;;;;;;5.75;2.17;;;10.30;99.90;;;;;;5019917;28;20038;-72
2024/01/22 06:26:24;;;;;;;4.63;1.63;;;10.30;99.90;;;;;;5023300;28;20175;-73
2024/01/22 06:28:52;;;;;;;4.50;1.60;;;10.30;99.90;;;;;;5027617;28;20046;-72
2024/01/22 06:31:18;;;;;;;4.85;1.55;;;10.30;99.90;;;;;;5021838;28;20083;-73
2024/01/22 06:33:44;;;;;;;5.15;1.63;;;10.30;99.90;;;;;;5013217;28;20530;-72
2024/01/22 06:36:10;;;;;;;5.47;1.80;;;10.30;99.90;;;;;;5047874;28;20116;-74
2024/01/22 06:38:35;;;;;;;7.53;2.10;;;10.30;99.90;;;;;;5032370;28;20050;-72
2024/01/22 06:41:01;;;;;;;6.15;1.80;;;10.30;99.90;;;;;;5021561;28;20139;-73
2024/01/22 06:43:27;;;;;;;7.63;2.00;;;10.30;99.90;;;;;;5052904;28;20538;-71
2024/01/22 06:45:53;;;;;;;7.22;1.70;;;10.30;99.90;;;;;;5036630;28;20037;-71
2024/01/22 06:48:19;;;;;;;7.45;2.20;;;10.30;99.90;;;;;;5030532;28;20049;-71
2024/01/22 06:50:44;;;;;;;10.32;2.83;;;10.30;99.90;;;;;;5018212;28;20048;-72
2024/01/22 06:53:10;;;;;;;7.35;1.83;;;10.30;99.90;;;;;;5027005;28;20053;-70
2024/01/22 06:55:36;;;;;;;9.63;2.10;;;10.30;99.90;;;;;;5056600;28;20383;-70
2024/01/22 06:58:02;;;;;;;8.05;2.00;;;10.40;99.90;;;;;;5052553;28;20478;-71
2024/01/22 07:00:27;;;;;;;9.27;2.53;;;10.30;99.90;;;;;;5055785;28;20347;-70
2024/01/22 07:02:53;;;;;;;10.10;2.67;;;10.30;99.90;;;;;;5028413;28;20041;-71
2024/01/22 07:05:19;;;;;;;13.63;3.28;;;10.30;99.90;;;;;;5032568;28;20049;-71
2024/01/22 07:07:45;;;;;;;11.98;3.08;;;10.30;99.90;;;;;;5049386;28;20037;-70
2024/01/22 07:10:10;;;;;;;11.35;2.78;;;10.40;99.90;;;;;;5036275;28;20517;-70
2024/01/22 07:12:39;;;;;;;12.15;3.22;;;10.30;99.90;;;;;;5036327;28;20045;-70
2024/01/22 07:15:05;;;;;;;18.30;3.72;;;10.30;99.90;;;;;;5069786;28;20057;-71
2024/01/22 07:17:31;;;;;;;14.95;3.45;;;10.30;99.90;;;;;;5034803;28;20039;-70
2024/01/22 07:19:57;;;;;;;22.48;4.70;;;10.40;99.90;;;;;;5036428;28;20108;-71
2024/01/22 07:22:22;;;;;;;20.15;4.72;;;10.40;99.90;;;;;;5031272;28;20092;-70
2024/01/22 07:24:48;;;;;;;20.50;4.13;;;10.40;99.90;;;;;;5031816;28;20067;-70
2024/01/22 07:27:14;;;;;;;20.23;4.15;;;10.30;99.90;;;;;;5056775;28;20475;-70
2024/01/22 07:29:41;;;;;;;26.25;4.68;;;10.40;99.90;;;;;;5059220;28;20048;-71
2024/01/22 07:32:09;;;;;;;16.92;4.28;;;10.30;99.90;;;;;;5025328;28;20356;-71
2024/01/22 07:34:34;;;;;;;23.27;5.85;;;10.30;99.90;;;;;;5042442;28;20041;-70
2024/01/22 07:37:00;;;;;;;24.27;4.43;;;10.30;99.90;;;;;;5024943;28;20053;-71
2024/01/22 07:39:26;;;;;;;19.55;4.97;;;10.40;99.90;;;;;;5030903;28;20128;-71
2024/01/22 07:41:51;;;;;;;24.88;5.35;;;10.30;99.90;;;;;;5037806;28;20041;-70
2024/01/22 07:44:17;;;;;;;25.20;5.50;;;10.40;99.90;;;;;;5033231;28;20046;-71
2024/01/22 07:46:43;;;;;;;25.65;5.45;;;10.30;99.90;;;;;;5032161;28;20093;-71
2024/01/22 07:49:08;;;;;;;29.35;5.68;;;10.30;99.90;;;;;;5031881;28;20053;-73
2024/01/22 07:51:34;;;;;;;22.38;5.57;;;10.30;99.90;;;;;;5016223;28;20120;-73
2024/01/22 07:54:01;;;;;;;23.63;6.13;;;10.30;99.90;;;;;;5032154;28;20038;-74
2024/01/22 07:56:28;;;;;;;28.17;5.78;;;10.30;99.90;;;;;;5027228;28;20041;-75
2024/01/22 07:58:54;;;;;;;32.45;6.95;;;10.20;99.90;;;;;;5023449;28;20360;-74
2024/01/22 08:01:19;;;;;;;29.15;5.75;;;10.10;99.90;;;;;;5047102;28;20045;-73
2024/01/22 08:03:45;;;;;;;25.42;4.70;;;10.00;99.90;;;;;;5063982;28;20475;-74
2024/01/22 08:06:11;;;;;;;22.58;4.22;;;9.90;99.90;;;;;;5041206;28;20379;-76
2024/01/22 08:08:39;;;;;;;16.77;3.85;;;9.90;99.90;;;;;;5010648;28;20034;-74
2024/01/22 08:11:04;;;;;;;20.17;3.80;;;9.90;99.90;;;;;;5026716;28;20046;-75
2024/01/22 08:13:30;;;;;;;10.85;2.20;;;9.80;99.90;;;;;;5016601;28;20367;-75
2024/01/22 08:15:56;;;;;;;10.43;2.25;;;9.80;99.90;;;;;;5014482;28;20058;-74
2024/01/22 08:18:22;;;;;;;15.50;3.05;;;9.80;99.90;;;;;;5022600;28;20486;-74
2024/01/22 08:20:48;;;;;;;9.40;2.28;;;9.70;99.90;;;;;;5056520;28;20092;-75
2024/01/22 08:23:14;;;;;;;7.75;2.28;;;9.70;99.90;;;;;;5028109;28;20073;-74
2024/01/22 08:25:40;;;;;;;6.90;2.25;;;9.60;99.90;;;;;;5038698;28;20080;-73
2024/01/22 08:28:06;;;;;;;11.65;2.53;;;9.60;99.90;;;;;;5022737;28;20120;-73
2024/01/22 08:30:32;;;;;;;11.85;2.63;;;9.60;99.90;;;;;;5024228;28;20506;-73
2024/01/22 08:32:58;;;;;;;10.45;2.85;;;9.60;99.90;;;;;;5061570;28;20411;-72
2024/01/22 08:35:24;;;;;;;11.95;3.50;;;9.60;99.90;;;;;;5028041;28;20120;-71
2024/01/22 08:37:54;;;;;;;15.98;3.72;;;9.60;99.90;;;;;;5062813;28;20129;-71
2024/01/22 08:40:21;;;;;;;24.60;4.85;;;9.60;99.90;;;;;;5032640;28;20160;-72
2024/01/22 08:42:52;;;;;;;24.90;5.03;;;9.60;99.90;;;;;;5031927;28;20394;-72
2024/01/22 08:45:19;;;;;;;30.13;6.05;;;9.60;99.90;;;;;;5025959;28;20080;-71
2024/01/22 08:47:45;;;;;;;25.25;5.32;;;9.60;99.90;;;;;;5039670;28;20045;-71
2024/01/22 08:50:15;;;;;;;31.15;5.60;;;9.60;99.90;;;;;;5018827;28;20550;-71
2024/01/22 08:52:42;;;;;;;37.08;6.28;;;9.30;99.90;;;;;;5022370;28;20041;-71
2024/01/22 08:55:09;;;;;;;35.58;6.93;;;9.50;99.90;;;;;;5019652;28;20042;-72
2024/01/22 08:57:35;;;;;;;31.95;6.05;;;9.50;99.90;;;;;;5019103;28;20053;-71
2024/01/22 09:00:05;;;;;;;28.80;5.95;;;9.50;99.90;;;;;;5037044;28;20422;-71
2024/01/22 09:02:31;;;;;;;27.80;5.72;;;9.50;99.90;;;;;;5026969;28;20128;-74
2024/01/22 09:04:57;;;;;;;40.55;8.27;;;9.50;99.90;;;;;;5036263;28;20095;-71
2024/01/22 09:07:23;;;;;;;41.35;8.10;;;9.50;99.90;;;;;;5034189;28;20084;-70
2024/01/22 09:09:50;;;;;;;37.22;7.45;;;9.50;99.90;;;;;;5028407;28;20419;-71
2024/01/22 09:12:18;;;;;;;51.25;8.60;;;9.50;99.90;;;;;;5030659;28;20411;-71
2024/01/22 09:14:44;;;;;;;48.50;9.23;;;9.50;99.90;;;;;;5003342;28;20057;-71
2024/01/22 09:17:09;;;;;;;40.47;9.50;;;9.50;99.90;;;;;;5045764;28;20046;-70
2024/01/22 09:19:35;;;;;;;56.13;10.73;;;9.50;99.90;;;;;;5037113;28;20048;-73
2024/01/22 09:22:01;;;;;;;56.55;9.80;;;9.50;99.90;;;;;;5033711;28;20068;-70
2024/01/22 09:24:26;;;;;;;45.65;9.98;;;9.60;99.90;;;;;;5047833;28;20107;-70
2024/01/22 09:26:52;;;;;;;55.65;9.15;;;9.60;99.90;;;;;;5029638;28;20099;-70
2024/01/22 09:29:18;;;;;;;40.17;9.23;;;9.70;99.90;;;;;;5035668;28;20045;-70
2024/01/22 09:31:43;;;;;;;52.88;10.55;;;9.70;99.90;;;;;;5029594;28;20203;-70
2024/01/22 09:34:10;;;;;;;42.47;7.90;;;9.70;99.90;;;;;;5018714;28;20041;-70
2024/01/22 09:36:36;;;;;;;56.55;10.05;;;9.70;99.90;;;;;;5034873;28;20439;-73
2024/01/22 09:39:02;;;;;;;45.97;9.93;;;9.80;99.90;;;;;;5021924;28;20136;-71
2024/01/22 09:41:29;;;;;;;49.50;9.73;;;9.80;99.90;;;;;;5032375;28;20045;-70
2024/01/22 09:43:55;;;;;;;42.40;9.60;;;9.90;99.90;;;;;;5020574;28;20403;-71
2024/01/22 09:46:22;;;;;;;39.60;8.60;;;9.90;99.90;;;;;;5058365;28;20052;-71
2024/01/22 09:48:53;;;;;;;43.90;8.82;;;9.90;99.90;;;;;;5039383;28;20135;-70
2024/01/22 09:51:18;;;;;;;40.50;8.07;;;9.90;99.90;;;;;;5034188;28;20383;-70
2024/01/22 09:53:47;;;;;;;43.65;8.80;;;10.00;99.90;;;;;;5033759;28;20037;-70
2024/01/22 09:56:16;;;;;;;36.05;7.50;;;10.00;99.90;;;;;;5028484;28;20033;-70
2024/01/22 09:58:44;;;;;;;36.47;7.35;;;9.90;99.90;;;;;;5036874;28;20029;-73
2024/01/22 10:01:10;;;;;;;40.22;7.22;;;10.00;99.90;;;;;;5036704;28;20443;-70
2024/01/22 10:03:37;;;;;;;33.90;7.07;;;10.00;99.90;;;;;;5028446;28;20352;-70
2024/01/22 10:06:03;;;;;;;33.95;7.13;;;10.00;99.90;;;;;;5028601;28;20099;-70
2024/01/22 10:08:29;;;;;;;31.58;6.45;;;9.90;99.90;;;;;;5034339;28;20054;-70
2024/01/22 10:10:55;;;;;;;40.28;7.78;;;10.00;99.90;;;;;;5039183;28;20124;-71
2024/01/22 10:13:20;;;;;;;41.78;7.00;;;10.00;99.90;;;;;;5013778;28;20471;-70
2024/01/22 10:15:47;;;;;;;35.83;7.75;;;10.10;99.90;;;;;;5061276;28;20355;-71
2024/01/22 10:18:15;;;;;;;29.15;7.22;;;10.10;99.90;;;;;;5015884;28;20042;-70
2024/01/22 10:20:43;;;;;;;34.45;6.85;;;10.10;99.90;;;;;;5035460;28;20053;-70
2024/01/22 10:23:13;;;;;;;32.67;6.85;;;10.10;99.90;;;;;;5031557;28;20092;-70
2024/01/22 10:25:39;;;;;;;34.38;7.45;;;10.10;99.90;;;;;;5027454;28;20149;-70
2024/01/22 10:28:16;;;;;;;35.47;7.13;;;10.10;99.90;;;;;;5030865;28;20049;-68
2024/01/22 10:30:42;;;;;;;30.17;7.22;;;10.10;99.90;;;;;;5026915;28;20037;-68
2024/01/22 10:33:13;;;;;;;33.42;6.80;;;10.10;99.90;;;;;;5029159;28;20053;-68
2024/01/22 10:35:40;;;;;;;28.88;6.45;;;10.10;99.90;;;;;;5030337;28;20041;-69
2024/01/22 10:38:14;;;;;;;35.55;6.32;;;10.10;99.90;;;;;;4995739;28;20120;-68
2024/01/22 10:40:40;;;;;;;30.90;6.85;;;10.10;99.90;;;;;;5032623;28;20044;-68
2024/01/22 10:43:26;;;;;;;27.42;6.03;;;10.10;99.90;;;;;;5031587;28;20083;-68
2024/01/22 10:45:54;;;;;;;31.92;6.78;;;10.10;99.90;;;;;;5033679;28;20060;-70
2024/01/22 10:48:23;;;;;;;29.35;6.50;;;10.10;99.90;;;;;;5057136;28;20054;-69
2024/01/22 10:50:49;;;;;;;26.17;5.45;;;10.10;99.90;;;;;;5020005;28;20046;-71
2024/01/22 10:53:16;;;;;;;21.25;4.45;;;10.10;99.90;;;;;;5014738;28;20038;-69
2024/01/22 10:56:03;;;;;;;20.58;5.45;;;10.10;99.90;;;;;;5010936;28;20081;-69
2024/01/22 10:58:49;;;;;;;26.65;6.05;;;10.10;99.90;;;;;;5014551;28;20077;-69
2024/01/22 11:01:21;;;;;;;27.00;4.60;;;10.10;99.90;;;;;;5017526;28;20049;-70
2024/01/22 11:03:53;;;;;;;24.27;5.28;;;10.10;99.90;;;;;;5023009;28;20053;-69
2024/01/22 11:06:23;;;;;;;22.67;5.40;;;10.20;99.90;;;;;;5027637;28;20037;-70
2024/01/22 11:08:50;;;;;;;22.88;4.68;;;10.20;99.90;;;;;;5028371;28;20112;-70
2024/01/22 11:11:25;;;;;;;28.33;5.43;;;10.10;99.90;;;;;;5020392;28;20175;-70
2024/01/22 11:13:56;;;;;;;27.08;5.55;;;10.20;99.90;;;;;;5039192;28;20375;-72
2024/01/22 11:16:23;;;;;;;28.73;5.85;;;10.20;99.90;;;;;;5027935;28;20095;-70
2024/01/22 11:19:00;;;;;;;26.80;5.20;;;10.20;99.90;;;;;;5020296;28;20120;-70
2024/01/22 11:21:39;;;;;;;28.08;6.10;;;10.30;99.90;;;;;;5063251;28;20061;-70
2024/01/22 11:24:19;;;;;;;25.58;6.57;;;10.30;99.90;;;;;;5033650;28;20118;-70
2024/01/22 11:26:53;;;;;;;23.75;5.85;;;10.40;99.90;;;;;;5062836;28;20044;-70
2024/01/22 11:29:27;;;;;;;25.77;5.50;;;10.50;99.90;;;;;;5019830;28;20120;-70
2024/01/22 11:31:53;;;;;;;18.70;4.72;;;10.40;99.90;;;;;;5026417;28;20052;-69
2024/01/22 11:34:40;;;;;;;28.60;5.03;;;10.40;99.90;;;;;;5054793;28;20049;-70
2024/01/22 11:37:08;;;;;;;24.50;5.35;;;10.40;99.90;;;;;;5028477;28;20467;-70
2024/01/22 11:39:39;;;;;;;21.67;4.03;;;10.40;99.90;;;;;;5029355;28;20041;-70
2024/01/22 11:42:17;;;;;;;21.25;4.35;;;10.40;99.90;;;;;;5031925;28;20045;-70
2024/01/22 11:44:46;;;;;;;23.83;4.32;;;10.40;99.90;;;;;;5031602;28;20045;-70
2024/01/22 11:47:12;;;;;;;18.80;4.47;;;10.40;99.90;;;;;;5037411;28;20398;-71
2024/01/22 11:49:38;;;;;;;19.60;4.00;;;10.40;99.90;;;;;;5025623;28;20058;-70
2024/01/22 11:52:18;;;;;;;26.38;5.25;;;10.40;99.90;;;;;;5014002;28;20044;-70
2024/01/22 11:54:55;;;;;;;25.15;4.95;;;10.40;99.90;;;;;;5032652;28;20041;-70
2024/01/22 11:57:22;;;;;;;20.77;4.32;;;10.40;99.90;;;;;;5026688;28;20047;-70
2024/01/22 12:00:10;;;;;;;22.00;4.75;;;10.40;99.90;;;;;;5020309;28;20045;-71
2024/01/22 12:02:40;;;;;;;23.58;5.47;;;10.40;99.90;;;;;;5020088;28;20112;-71
2024/01/22 12:05:12;;;;;;;16.85;4.10;;;10.40;99.90;;;;;;4999402;28;20120;-71
2024/01/22 12:07:48;;;;;;;22.15;4.95;;;10.40;99.90;;;;;;5021332;28;20497;-69
2024/01/22 12:10:25;;;;;;;24.92;4.70;;;10.40;99.90;;;;;;5016910;28;20064;-72
2024/01/22 12:13:04;;;;;;;14.50;4.22;;;10.40;99.90;;;;;;5004440;28;20128;-71
2024/01/22 12:15:32;;;;;;;24.50;4.80;;;10.40;99.90;;;;;;5016923;28;20510;-71
2024/01/22 12:17:59;;;;;;;17.05;4.10;;;10.40;99.90;;;;;;5020238;28;20053;-70
2024/01/22 12:20:26;;;;;;;17.25;3.97;;;10.30;99.90;;;;;;5023564;28;20037;-71
2024/01/22 12:22:58;;;;;;;17.38;4.60;;;10.40;99.90;;;;;;5031094;28;20051;-71
2024/01/22 12:25:36;;;;;;;19.20;4.95;;;10.40;99.90;;;;;;5028160;28;20042;-71
2024/01/22 12:28:12;;;;;;;17.38;3.85;;;10.30;99.90;;;;;;5015718;28;20128;-73
2024/01/22 12:30:38;;;;;;;23.23;4.82;;;10.30;99.90;;;;;;5033048;28;20042;-71
2024/01/22 12:33:04;;;;;;;20.85;4.55;;;10.30;99.90;;;;;;5032536;28;20083;-73
2024/01/22 12:35:30;;;;;;;19.40;4.00;;;10.30;99.90;;;;;;5029886;28;20084;-70
2024/01/22 12:37:55;;;;;;;24.80;4.88;;;10.30;99.90;;;;;;5032780;28;20045;-69
2024/01/22 12:40:23;;;;;;;19.73;5.25;;;10.30;99.90;;;;;;5042196;28;20871;-70
2024/01/22 12:42:51;;;;;;;20.65;4.03;;;10.30;99.90;;;;;;5024363;28;20076;-71
2024/01/22 12:45:21;;;;;;;22.58;4.63;;;10.30;99.90;;;;;;5061094;28;20425;-71
2024/01/22 12:47:48;;;;;;;24.73;4.80;;;10.20;99.90;;;;;;5024749;28;20541;-71